Time;durP1;ratioP1;P1;durP2;ratioP2;P2;SDS_P1;SDS_P2;PMS_P1;PMS_P2;Temp;Humidity;BMP_temperature;BMP_pressure;BME280_temperature;BME280_humidity;BME280_pressure;Samples;Min_cycle;Max_cycle;Signal;HPM_P1;HPM_P2
2023/10/19 00:01:05;;;;;;;21.50;16.58;;;;;;;-148.88;100.00;-17125.47;5024699;28;20030;-84
2023/10/19 00:03:30;;;;;;;19.90;9.07;;;;;;;-148.88;100.00;-17125.47;5021403;28;20447;-84
2023/10/19 00:05:56;;;;;;;21.02;15.82;;;;;;;-148.88;100.00;-17125.47;5021748;28;20022;-85
2023/10/19 00:08:22;;;;;;;20.88;15.93;;;;;;;-148.88;100.00;-17125.47;5023384;28;20037;-85
2023/10/19 00:11:05;;;;;;;24.73;17.60;;;;;;;-148.88;100.00;-17125.47;5021767;28;20018;-82
2023/10/19 00:13:31;;;;;;;22.23;17.73;;;;;;;-148.88;100.00;-17125.47;5019505;28;20053;-84
2023/10/19 00:15:57;;;;;;;19.02;9.38;;;;;;;-148.88;100.00;-17125.47;5020204;28;20084;-83
2023/10/19 00:18:24;;;;;;;17.70;8.98;;;;;;;-148.88;100.00;-17125.47;5021905;28;20034;-87
2023/10/19 00:20:59;;;;;;;22.88;10.30;;;;;;;-148.88;100.00;-17125.47;5020430;28;20482;-87
2023/10/19 00:23:31;;;;;;;18.98;9.68;;;;;;;-148.88;100.00;-17125.47;5020335;28;20037;-85
2023/10/19 00:25:59;;;;;;;28.20;19.38;;;;;;;-148.88;100.00;-17125.47;5020800;28;20018;-87
2023/10/19 00:28:28;;;;;;;24.27;19.50;;;;;;;-148.88;100.00;-17125.47;5020257;28;20037;-86
2023/10/19 00:30:59;;;;;;;28.23;20.52;;;;;;;-148.88;100.00;-17125.47;5019721;28;20026;-85
2023/10/19 00:33:28;;;;;;;25.10;19.75;;;;;;;-148.88;100.00;-17125.47;5020306;28;20101;-85
2023/10/19 00:35:58;;;;;;;25.67;20.30;;;;;;;-148.88;100.00;-17125.47;5020882;28;20495;-85
2023/10/19 00:38:27;;;;;;;26.52;19.73;;;;;;;-148.88;100.00;-17125.47;5020462;28;20169;-85
2023/10/19 00:40:58;;;;;;;20.83;11.20;;;;;;;-148.88;100.00;-17125.47;5019824;28;20419;-86
2023/10/19 00:43:34;;;;;;;20.48;10.90;;;;;;;-148.88;100.00;-17125.47;5022906;28;20049;-86
2023/10/19 00:46:04;;;;;;;27.15;20.95;;;;;;;-148.88;100.00;-17125.47;5018218;28;20018;-84
2023/10/19 00:48:34;;;;;;;25.35;20.10;;;;;;;-148.88;100.00;-17125.47;5021220;28;20163;-84
2023/10/19 00:51:53;;;;;;;18.52;10.43;;;;;;;-148.88;100.00;-17125.47;5019776;28;20064;-86
2023/10/19 00:53:49;;;;;;;27.15;20.63;;;;;;;-148.88;100.00;-17125.47;5015814;28;20083;-86
2023/10/19 00:56:17;;;;;;;28.90;21.63;;;;;;;-148.88;100.00;-17125.47;5019269;28;20142;-86
2023/10/19 00:58:47;;;;;;;29.48;21.58;;;;;;;-148.88;100.00;-17125.47;5017661;28;20045;-86
2023/10/19 01:01:15;;;;;;;24.48;11.48;;;;;;;-148.88;100.00;-17125.47;5019351;28;20021;-84
2023/10/19 01:03:40;;;;;;;28.30;21.63;;;;;;;-148.88;100.00;-17125.47;5018674;28;20030;-85
2023/10/19 01:06:09;;;;;;;29.77;21.95;;;;;;;-148.88;100.00;-17125.47;5017233;28;20091;-86
2023/10/19 01:08:41;;;;;;;28.30;22.00;;;;;;;-148.88;100.00;-17125.47;5016065;28;20036;-84
2023/10/19 01:11:11;;;;;;;28.00;11.57;;;;;;;-148.88;100.00;-17125.47;5017665;28;20026;-87
2023/10/19 01:13:44;;;;;;;23.08;10.90;;;;;;;-148.88;100.00;-17125.47;5019316;28;20518;-84
2023/10/19 01:16:15;;;;;;;31.60;22.85;;;;;;;-148.88;100.00;-17125.47;5017203;28;20034;-85
2023/10/19 01:18:43;;;;;;;24.08;11.32;;;;;;;-148.88;100.00;-17125.47;5017165;28;20121;-87
2023/10/19 01:21:09;;;;;;;32.38;21.77;;;;;;;-148.88;100.00;-17125.47;5017636;28;20372;-84
2023/10/19 01:23:35;;;;;;;22.75;12.07;;;;;;;-148.88;100.00;-17125.47;5016992;28;20040;-85
2023/10/19 01:26:05;;;;;;;27.48;21.98;;;;;;;-148.88;100.00;-17125.47;5016816;28;20084;-85
2023/10/19 01:28:48;;;;;;;28.40;22.38;;;;;;;-148.88;100.00;-17125.47;5016800;28;20050;-85
2023/10/19 01:31:16;;;;;;;30.10;22.85;;;;;;;-148.88;100.00;-17125.47;5015275;28;20070;-84
2023/10/19 01:33:41;;;;;;;22.45;11.65;;;;;;;-148.88;100.00;-17125.47;5015012;28;20488;-85
2023/10/19 01:36:11;;;;;;;30.27;22.50;;;;;;;-148.88;100.00;-17125.47;5015914;28;20072;-84
2023/10/19 01:38:37;;;;;;;33.95;24.40;;;;;;;-148.88;100.00;-17125.47;5015034;28;20056;-83
2023/10/19 01:41:23;;;;;;;34.38;24.63;;;;;;;-148.88;100.00;-17125.47;5014837;28;20432;-84
2023/10/19 01:43:53;;;;;;;25.88;11.85;;;;;;;-148.88;100.00;-17125.47;5014736;28;20377;-85
2023/10/19 01:46:31;;;;;;;35.83;25.25;;;;;;;-148.88;100.00;-17125.47;5014568;28;20072;-84
2023/10/19 01:48:56;;;;;;;28.33;12.57;;;;;;;-148.88;100.00;-17125.47;5015836;28;20022;-83
2023/10/19 01:51:28;;;;;;;34.63;24.38;;;;;;;-148.88;100.00;-17125.47;5016213;28;20036;-84
2023/10/19 01:53:55;;;;;;;26.75;13.45;;;;;;;-148.88;100.00;-17125.47;5014790;28;20034;-83
2023/10/19 01:56:21;;;;;;;36.40;25.92;;;;;;;-148.88;100.00;-17125.47;5013552;28;20018;-86
2023/10/19 01:58:48;;;;;;;36.08;26.00;;;;;;;-148.88;100.00;-17125.47;5014302;28;20025;-85
2023/10/19 02:01:20;;;;;;;42.35;27.83;;;;;;;-148.88;100.00;-17125.47;5014374;28;20514;-82
2023/10/19 02:03:47;;;;;;;22.88;12.15;;;;;;;-148.88;100.00;-17125.47;5014580;28;20061;-85
2023/10/19 02:06:17;;;;;;;38.20;25.77;;;;;;;-148.88;100.00;-17125.47;5015269;28;20469;-86
2023/10/19 02:09:00;;;;;;;26.75;12.40;;;;;;;-148.88;100.00;-17125.47;5015414;28;20511;-84
2023/10/19 02:11:26;;;;;;;30.90;13.77;;;;;;;-148.88;100.00;-17125.47;5013734;28;20030;-85
2023/10/19 02:13:54;;;;;;;31.15;13.13;;;;;;;-148.88;100.00;-17125.47;5015319;28;20425;-85
2023/10/19 02:16:22;;;;;;;25.08;12.18;;;;;;;-148.88;100.00;-17125.47;5015999;28;20025;-84
2023/10/19 02:18:51;;;;;;;27.35;13.60;;;;;;;-148.88;100.00;-17125.47;5015393;28;20075;-86
2023/10/19 02:21:27;;;;;;;26.33;12.85;;;;;;;-148.88;100.00;-17125.47;5013805;28;20022;-86
2023/10/19 02:23:53;;;;;;;25.35;12.40;;;;;;;-148.88;100.00;-17125.47;5015107;28;20026;-86
2023/10/19 02:26:28;;;;;;;36.15;26.95;;;;;;;-148.88;100.00;-17125.47;5015029;28;20021;-85
2023/10/19 02:28:55;;;;;;;38.55;26.25;;;;;;;-148.88;100.00;-17125.47;5015820;28;20396;-83
2023/10/19 02:31:22;;;;;;;30.42;13.30;;;;;;;-148.88;100.00;-17125.47;5014293;28;20116;-85
2023/10/19 02:33:55;;;;;;;29.52;13.60;;;;;;;-148.88;100.00;-17125.47;5014191;28;20021;-84
2023/10/19 02:36:23;;;;;;;37.97;27.75;;;;;;;-148.88;100.00;-17125.47;5014944;28;20073;-84
2023/10/19 02:38:48;;;;;;;33.25;14.98;;;;;;;-148.88;100.00;-17125.47;5014936;28;20079;-85
2023/10/19 02:41:21;;;;;;;43.00;27.98;;;;;;;-148.88;100.00;-17125.47;5014580;28;20029;-85
2023/10/19 02:43:51;;;;;;;38.83;26.85;;;;;;;-148.88;100.00;-17125.47;5013327;28;20029;-85
2023/10/19 02:46:17;;;;;;;39.65;27.05;;;;;;;-148.88;100.00;-17125.47;5012558;28;20071;-85
2023/10/19 02:48:49;;;;;;;39.88;27.08;;;;;;;-148.88;100.00;-17125.47;5014111;28;20032;-85
2023/10/19 02:51:15;;;;;;;42.58;27.33;;;;;;;-148.88;100.00;-17125.47;5012816;28;20026;-85
2023/10/19 02:53:42;;;;;;;23.80;11.75;;;;;;;-148.88;100.00;-17125.47;5014223;28;20030;-85
2023/10/19 02:56:12;;;;;;;25.73;12.23;;;;;;;-148.88;100.00;-17125.47;5012893;28;20387;-83
2023/10/19 02:58:42;;;;;;;26.67;11.95;;;;;;;-148.88;100.00;-17125.47;5012858;28;20029;-84
2023/10/19 03:01:17;;;;;;;36.50;25.08;;;;;;;-148.88;100.00;-17125.47;5012872;28;20510;-86
2023/10/19 03:03:43;;;;;;;35.05;24.02;;;;;;;-148.88;100.00;-17125.47;5014979;28;20029;-85
2023/10/19 03:06:09;;;;;;;36.88;25.27;;;;;;;-148.88;100.00;-17125.47;5014670;28;20124;-84
2023/10/19 03:08:35;;;;;;;20.92;10.45;;;;;;;-148.88;100.00;-17125.47;5014788;28;20037;-85
2023/10/19 03:11:04;;;;;;;33.28;23.70;;;;;;;-148.88;100.00;-17125.47;5015107;28;20030;-81
2023/10/19 03:13:29;;;;;;;23.67;10.63;;;;;;;-148.88;100.00;-17125.47;5012354;28;20045;-82
2023/10/19 03:15:55;;;;;;;34.53;24.58;;;;;;;-148.88;100.00;-17125.47;5013733;28;20128;-84
2023/10/19 03:18:20;;;;;;;25.95;11.48;;;;;;;-148.88;100.00;-17125.47;5013979;28;20080;-84
2023/10/19 03:20:45;;;;;;;32.08;23.02;;;;;;;-148.88;100.00;-17125.47;5014158;28;20109;-84
2023/10/19 03:23:14;;;;;;;36.05;23.23;;;;;;;-148.88;100.00;-17125.47;5016798;28;20029;-83
2023/10/19 03:28:26;;;;;;;;;;;;;;;-148.88;100.00;-17125.47;5014691;28;20141;-81
2023/10/19 03:30:51;;;;;;;19.58;9.50;;;;;;;-148.88;100.00;-17125.47;5014273;28;20295;-86
2023/10/19 03:33:18;;;;;;;23.40;10.77;;;;;;;-148.88;100.00;-17125.47;5014553;28;20036;-87
2023/10/19 03:35:43;;;;;;;32.08;20.90;;;;;;;-148.88;100.00;-17125.47;5013138;28;20052;-84
2023/10/19 03:38:16;;;;;;;17.85;9.02;;;;;;;-148.88;100.00;-17125.47;5012451;28;20441;-84
2023/10/19 03:40:46;;;;;;;18.80;8.77;;;;;;;-148.88;100.00;-17125.47;5012810;28;20033;-82
2023/10/19 03:43:17;;;;;;;24.20;17.85;;;;;;;-148.88;100.00;-17125.47;5013400;28;20045;-83
2023/10/19 03:45:50;;;;;;;18.25;7.80;;;;;;;-148.88;100.00;-17125.47;5012239;28;20060;-83
2023/10/19 03:48:17;;;;;;;16.02;8.43;;;;;;;-148.88;100.00;-17125.47;5013043;28;20053;-83
2023/10/19 03:50:42;;;;;;;27.33;18.95;;;;;;;-148.88;100.00;-17125.47;5013134;28;20050;-83
2023/10/19 03:53:12;;;;;;;25.20;18.00;;;;;;;-148.88;100.00;-17125.47;5013052;28;20455;-83
2023/10/19 03:55:38;;;;;;;25.98;18.33;;;;;;;-148.88;100.00;-17125.47;5011745;28;20029;-83
2023/10/19 03:58:04;;;;;;;16.42;8.30;;;;;;;-148.88;100.00;-17125.47;5011710;28;20026;-82
2023/10/19 04:00:33;;;;;;;24.60;17.05;;;;;;;-148.88;100.00;-17125.47;5013240;28;20029;-84
2023/10/19 04:02:58;;;;;;;28.40;18.08;;;;;;;-148.88;100.00;-17125.47;5013185;28;20032;-83
2023/10/19 04:05:25;;;;;;;16.73;8.23;;;;;;;-148.88;100.00;-17125.47;5013193;28;20388;-84
2023/10/19 04:07:55;;;;;;;22.27;16.15;;;;;;;-148.88;100.00;-17125.47;5011863;28;20033;-85
2023/10/19 04:10:29;;;;;;;23.05;17.38;;;;;;;-148.88;100.00;-17125.47;5013144;28;20037;-85
2023/10/19 04:12:55;;;;;;;13.82;6.95;;;;;;;-148.88;100.00;-17125.47;5012629;28;20029;-85
2023/10/19 04:15:21;;;;;;;12.13;6.63;;;;;;;-148.88;100.00;-17125.47;5012319;28;20053;-86
2023/10/19 04:17:48;;;;;;;14.10;7.35;;;;;;;-148.88;100.00;-17125.47;5013352;28;20049;-83
2023/10/19 04:22:42;;;;;;;22.65;16.30;;;;;;;-148.88;100.00;-17125.47;5016995;28;20034;-85
2023/10/19 04:25:12;;;;;;;24.38;16.10;;;;;;;-148.88;100.00;-17125.47;5015253;28;20076;-85
2023/10/19 04:27:38;;;;;;;25.02;16.75;;;;;;;-148.88;100.00;-17125.47;5015248;28;20045;-85
2023/10/19 04:30:04;;;;;;;13.98;6.72;;;;;;;-148.88;100.00;-17125.47;5017008;28;20487;-85
2023/10/19 04:32:31;;;;;;;13.63;6.88;;;;;;;-148.88;100.00;-17125.47;5016313;28;20022;-85
2023/10/19 04:34:58;;;;;;;23.38;16.02;;;;;;;-148.88;100.00;-17125.47;5016813;28;20022;-86
2023/10/19 04:37:24;;;;;;;14.13;7.43;;;;;;;-148.88;100.00;-17125.47;5016627;28;20049;-85
2023/10/19 04:39:49;;;;;;;12.85;7.40;;;;;;;-148.88;100.00;-17125.47;5015963;28;20061;-84
2023/10/19 04:42:15;;;;;;;22.73;15.63;;;;;;;-148.88;100.00;-17125.47;5018094;28;20030;-86
2023/10/19 04:44:41;;;;;;;20.38;14.98;;;;;;;-148.88;100.00;-17125.47;5017588;28;20022;-85
2023/10/19 04:47:06;;;;;;;14.40;7.05;;;;;;;-148.88;100.00;-17125.47;5015696;28;20025;-88
2023/10/19 04:49:41;;;;;;;23.80;16.60;;;;;;;-148.88;100.00;-17125.47;5018235;28;20499;-88
2023/10/19 04:52:06;;;;;;;26.67;17.05;;;;;;;-148.88;100.00;-17125.47;5015921;28;20048;-85
2023/10/19 04:54:32;;;;;;;22.55;16.45;;;;;;;-148.88;100.00;-17125.47;5014845;28;20025;-88
2023/10/19 04:56:57;;;;;;;24.77;17.77;;;;;;;-148.88;100.00;-17125.47;5014972;28;20052;-87
2023/10/19 04:59:23;;;;;;;26.15;16.95;;;;;;;-148.88;100.00;-17125.47;5014629;28;20108;-87
2023/10/19 05:01:49;;;;;;;24.33;17.35;;;;;;;-148.88;100.00;-17125.47;5015923;28;20026;-87
2023/10/19 05:04:16;;;;;;;18.08;7.82;;;;;;;-148.88;100.00;-17125.47;5014751;28;20037;-86
2023/10/19 05:06:42;;;;;;;23.55;17.08;;;;;;;-148.88;100.00;-17125.47;5014968;28;20080;-86
2023/10/19 05:09:08;;;;;;;23.85;16.95;;;;;;;-148.88;100.00;-17125.47;5014929;28;20030;-87
2023/10/19 05:11:33;;;;;;;17.30;8.10;;;;;;;-148.88;100.00;-17125.47;5016814;28;20025;-88
2023/10/19 05:13:58;;;;;;;14.45;7.78;;;;;;;-148.88;100.00;-17125.47;5015355;28;20455;-86
2023/10/19 05:16:24;;;;;;;14.30;7.93;;;;;;;-148.88;100.00;-17125.47;5015265;28;20065;-87
2023/10/19 05:18:49;;;;;;;28.30;18.67;;;;;;;-148.88;100.00;-17125.47;5017480;28;20030;-88
2023/10/19 05:21:15;;;;;;;27.92;19.27;;;;;;;-148.88;100.00;-17125.47;5016075;28;20116;-86
2023/10/19 05:23:40;;;;;;;24.15;17.13;;;;;;;-148.88;100.00;-17125.47;5015103;28;20122;-84
2023/10/19 05:26:06;;;;;;;27.88;18.35;;;;;;;-148.88;100.00;-17125.47;5015449;28;20037;-86
2023/10/19 05:28:32;;;;;;;27.50;18.80;;;;;;;-148.88;100.00;-17125.47;5015109;28;20506;-86
2023/10/19 05:30:59;;;;;;;28.98;19.30;;;;;;;-148.88;100.00;-17125.47;5016331;28;20022;-85
2023/10/19 05:33:27;;;;;;;27.08;19.05;;;;;;;-148.88;100.00;-17125.47;5015110;28;20524;-86
2023/10/19 05:35:52;;;;;;;26.48;19.08;;;;;;;-148.88;100.00;-17125.47;5015513;28;20018;-85
2023/10/19 05:38:22;;;;;;;17.42;8.90;;;;;;;-148.88;100.00;-17125.47;5014621;28;20037;-86
2023/10/19 05:40:49;;;;;;;13.38;7.68;;;;;;;-148.88;100.00;-17125.47;5014585;28;20491;-86
2023/10/19 05:43:15;;;;;;;29.95;20.13;;;;;;;-148.88;100.00;-17125.47;5014463;28;20028;-85
2023/10/19 05:45:41;;;;;;;16.63;8.57;;;;;;;-148.88;100.00;-17125.47;5014845;28;20026;-85
2023/10/19 05:48:06;;;;;;;25.33;18.65;;;;;;;-148.88;100.00;-17125.47;5016805;28;20026;-84
2023/10/19 05:50:35;;;;;;;27.67;19.27;;;;;;;-148.88;100.00;-17125.47;5016820;28;20376;-85
2023/10/19 05:53:03;;;;;;;29.58;19.88;;;;;;;-148.88;100.00;-17125.47;5014495;28;20400;-85
2023/10/19 05:55:28;;;;;;;28.90;19.65;;;;;;;-148.88;100.00;-17125.47;5014875;28;20433;-85
2023/10/19 05:57:54;;;;;;;28.08;20.08;;;;;;;-148.88;100.00;-17125.47;5014704;28;20103;-86
2023/10/19 06:00:21;;;;;;;27.88;20.65;;;;;;;-148.88;100.00;-17125.47;5015391;28;20048;-84
2023/10/19 06:02:51;;;;;;;28.60;20.88;;;;;;;-148.88;100.00;-17125.47;5014993;28;20492;-84
2023/10/19 06:05:17;;;;;;;18.80;8.95;;;;;;;-148.88;100.00;-17125.47;5014233;28;20025;-86
2023/10/19 06:07:47;;;;;;;30.77;21.50;;;;;;;-148.88;100.00;-17125.47;5014313;28;20492;-86
2023/10/19 06:10:17;;;;;;;28.85;20.17;;;;;;;-148.88;100.00;-17125.47;5015585;28;20109;-84
2023/10/19 06:12:47;;;;;;;40.55;24.33;;;;;;;-148.88;100.00;-17125.47;5014376;28;20017;-86
2023/10/19 06:15:15;;;;;;;23.15;10.23;;;;;;;-148.88;100.00;-17125.47;5013833;28;20018;-86
2023/10/19 06:17:41;;;;;;;21.65;10.20;;;;;;;-148.88;100.00;-17125.47;5014053;28;20021;-86
2023/10/19 06:20:19;;;;;;;36.85;23.92;;;;;;;-148.88;100.00;-17125.47;5013743;28;20470;-84
2023/10/19 06:22:51;;;;;;;34.92;23.63;;;;;;;-148.88;100.00;-17125.47;5014367;28;20174;-84
2023/10/19 06:25:24;;;;;;;37.55;25.10;;;;;;;-148.88;100.00;-17125.47;5013809;28;20026;-84
2023/10/19 06:27:51;;;;;;;18.58;9.32;;;;;;;-148.88;100.00;-17125.47;5013940;28;20100;-85
2023/10/19 06:30:22;;;;;;;36.80;24.73;;;;;;;-148.88;100.00;-17125.47;5013497;28;20026;-86
2023/10/19 06:32:54;;;;;;;39.55;25.00;;;;;;;-148.88;100.00;-17125.47;5014010;28;20030;-85
2023/10/19 06:35:20;;;;;;;36.90;25.38;;;;;;;-148.88;100.00;-17125.47;5014584;28;20109;-85
2023/10/19 06:37:47;;;;;;;36.65;25.13;;;;;;;-148.88;100.00;-17125.47;5014238;28;20129;-85
2023/10/19 06:40:17;;;;;;;39.28;25.13;;;;;;;-148.88;100.00;-17125.47;5024986;23;20081;-77
2023/10/19 06:42:46;;;;;;;41.67;24.80;;;;;;;-148.88;100.00;-17125.47;5012546;28;20036;-77
2023/10/19 06:45:16;;;;;;;41.28;26.08;;;;;;;-148.88;100.00;-17125.47;5013767;28;20033;-77
2023/10/19 06:47:44;;;;;;;19.73;10.40;;;;;;;-148.88;100.00;-17125.47;5014086;28;20026;-78
2023/10/19 06:50:15;;;;;;;35.13;24.35;;;;;;;-148.88;100.00;-17125.47;5012660;28;20017;-77
2023/10/19 06:52:42;;;;;;;38.17;25.17;;;;;;;-148.88;100.00;-17125.47;5014640;28;20022;-77
2023/10/19 06:55:13;;;;;;;37.38;23.83;;;;;;;-148.88;100.00;-17125.47;5013486;28;20018;-77
2023/10/19 06:57:43;;;;;;;36.33;24.77;;;;;;;-148.88;100.00;-17125.47;5015039;28;20088;-77
2023/10/19 07:00:33;;;;;;;37.42;25.65;;;;;;;-148.88;100.00;-17125.47;5013170;28;20496;-77
2023/10/19 07:03:02;;;;;;;41.80;25.33;;;;;;;-148.88;100.00;-17125.47;5014474;28;20492;-77
2023/10/19 07:05:30;;;;;;;34.55;23.38;;;;;;;-148.88;100.00;-17125.47;5013061;28;20619;-77
2023/10/19 07:07:58;;;;;;;25.05;11.15;;;;;;;-148.88;100.00;-17125.47;5014588;28;20111;-77
2023/10/19 07:10:24;;;;;;;35.95;23.95;;;;;;;-148.88;100.00;-17125.47;5014535;28;20032;-77
2023/10/19 07:12:53;;;;;;;35.53;25.48;;;;;;;-148.88;100.00;-17125.47;5013839;28;20018;-77
2023/10/19 07:15:19;;;;;;;40.25;23.95;;;;;;;-148.88;100.00;-17125.47;5013786;28;20022;-77
2023/10/19 07:17:46;;;;;;;36.55;23.67;;;;;;;-148.88;100.00;-17125.47;5012308;28;20097;-77
2023/10/19 07:20:35;;;;;;;37.70;24.15;;;;;;;-148.88;100.00;-17125.47;5013644;28;20109;-77
2023/10/19 07:23:09;;;;;;;35.13;23.48;;;;;;;-148.88;100.00;-17125.47;5012478;28;20508;-77
2023/10/19 07:25:45;;;;;;;34.92;22.60;;;;;;;-148.88;100.00;-17125.47;5013496;28;20080;-77
2023/10/19 07:28:12;;;;;;;34.38;23.85;;;;;;;-148.88;100.00;-17125.47;5012107;28;20026;-77
2023/10/19 07:30:38;;;;;;;37.30;24.27;;;;;;;-148.88;100.00;-17125.47;5012313;28;20099;-77
2023/10/19 07:33:05;;;;;;;35.42;23.25;;;;;;;-148.88;100.00;-17125.47;5014682;28;20097;-77
2023/10/19 07:35:34;;;;;;;33.95;24.02;;;;;;;-148.88;100.00;-17125.47;5013246;28;20025;-77
2023/10/19 07:38:01;;;;;;;33.38;23.08;;;;;;;-148.88;100.00;-17125.47;5014976;28;20065;-77
2023/10/19 07:40:27;;;;;;;33.85;23.70;;;;;;;-148.88;100.00;-17125.47;5012998;28;20034;-77
2023/10/19 07:42:54;;;;;;;33.42;23.35;;;;;;;-148.88;100.00;-17125.47;5014808;28;20391;-77
2023/10/19 07:45:19;;;;;;;17.23;9.40;;;;;;;-148.88;100.00;-17125.47;5013224;28;20068;-77
2023/10/19 07:47:45;;;;;;;36.28;24.10;;;;;;;-148.88;100.00;-17125.47;5014313;28;20104;-78
2023/10/19 07:50:15;;;;;;;38.22;24.80;;;;;;;-148.88;100.00;-17125.47;5013387;28;20028;-77
2023/10/19 07:52:46;;;;;;;37.25;24.27;;;;;;;-148.88;100.00;-17125.47;5011109;28;20030;-77
2023/10/19 07:55:11;;;;;;;23.27;11.13;;;;;;;-148.88;100.00;-17125.47;5013850;28;20404;-77
2023/10/19 07:57:38;;;;;;;33.88;24.35;;;;;;;-148.88;100.00;-17125.47;5015161;28;20525;-77
2023/10/19 08:00:04;;;;;;;37.30;24.17;;;;;;;-148.88;100.00;-17125.47;5014964;28;20030;-77
2023/10/19 08:02:30;;;;;;;32.83;23.58;;;;;;;-148.88;100.00;-17125.47;5016061;28;20033;-76
2023/10/19 08:04:56;;;;;;;33.88;24.10;;;;;;;-148.88;100.00;-17125.47;5014583;28;20018;-77
2023/10/19 08:07:21;;;;;;;34.97;23.40;;;;;;;-148.88;100.00;-17125.47;5017355;28;20026;-77
2023/10/19 08:09:47;;;;;;;30.95;23.30;;;;;;;-148.88;100.00;-17125.47;5017214;28;20504;-77
2023/10/19 08:12:13;;;;;;;32.53;23.27;;;;;;;-148.88;100.00;-17125.47;5017011;28;20519;-77
2023/10/19 08:14:39;;;;;;;32.15;23.55;;;;;;;-148.88;100.00;-17125.47;5018232;28;20472;-77
2023/10/19 08:17:04;;;;;;;30.08;22.58;;;;;;;-148.88;100.00;-17125.47;5017416;28;20030;-77
2023/10/19 08:19:32;;;;;;;31.33;22.95;;;;;;;-148.88;100.00;-17125.47;5017570;28;20018;-77
2023/10/19 08:21:58;;;;;;;34.40;23.20;;;;;;;-148.88;100.00;-17125.47;5016544;28;20022;-78
2023/10/19 08:24:23;;;;;;;31.85;22.35;;;;;;;-148.88;100.00;-17125.47;5017117;28;20033;-78
2023/10/19 08:26:50;;;;;;;30.98;22.58;;;;;;;-148.88;100.00;-17125.47;5016807;28;20033;-78
2023/10/19 08:29:16;;;;;;;34.65;22.77;;;;;;;-148.88;100.00;-17125.47;5015007;28;20028;-78
2023/10/19 08:31:44;;;;;;;29.80;21.20;;;;;;;-148.88;100.00;-17125.47;5016534;28;20025;-78
2023/10/19 08:34:11;;;;;;;31.90;21.80;;;;;;;-148.88;100.00;-17125.47;5016296;28;20476;-77
2023/10/19 08:36:37;;;;;;;33.03;21.90;;;;;;;-148.88;100.00;-17125.47;5016599;28;20105;-77
2023/10/19 08:39:07;;;;;;;30.88;21.77;;;;;;;-148.88;100.00;-17125.47;5015957;28;20032;-77
2023/10/19 08:41:34;;;;;;;31.33;22.38;;;;;;;-148.88;100.00;-17125.47;5016329;28;20034;-77
2023/10/19 08:44:02;;;;;;;29.13;21.65;;;;;;;-148.88;100.00;-17125.47;5016498;28;20026;-76
2023/10/19 08:46:28;;;;;;;31.70;23.35;;;;;;;-148.88;100.00;-17125.47;5017566;28;20033;-77
2023/10/19 08:48:56;;;;;;;30.00;22.38;;;;;;;-148.88;100.00;-17125.47;5017511;28;20022;-77
2023/10/19 08:51:24;;;;;;;29.85;21.75;;;;;;;-148.88;100.00;-17125.47;5017778;28;20036;-77
2023/10/19 08:53:54;;;;;;;29.17;21.90;;;;;;;-148.88;100.00;-17125.47;5018177;28;20022;-77
2023/10/19 08:56:20;;;;;;;26.02;20.77;;;;;;;-148.88;100.00;-17125.47;5016222;28;20056;-77
2023/10/19 08:58:46;;;;;;;27.77;21.20;;;;;;;-148.88;100.00;-17125.47;5017314;28;20025;-77
2023/10/19 09:01:12;;;;;;;30.52;22.40;;;;;;;-148.88;100.00;-17125.47;5019743;28;20029;-79
2023/10/19 09:03:38;;;;;;;31.75;23.17;;;;;;;-148.88;100.00;-17125.47;5024467;28;20026;-79
2023/10/19 09:06:05;;;;;;;39.15;26.08;;;;;;;-148.88;100.00;-17125.47;5024673;28;20033;-79
2023/10/19 09:08:40;;;;;;;32.28;24.20;;;;;;;-148.88;100.00;-17125.47;5025774;28;20030;-79
2023/10/19 09:11:11;;;;;;;29.73;22.60;;;;;;;-148.88;100.00;-17125.47;5025851;28;20022;-79
2023/10/19 09:13:52;;;;;;;36.53;27.88;;;;;;;-148.88;100.00;-17125.47;5022335;28;20018;-77
2023/10/19 09:16:20;;;;;;;33.15;23.98;;;;;;;-148.88;100.00;-17125.47;5023209;28;20500;-79
2023/10/19 09:18:54;;;;;;;35.38;26.20;;;;;;;-148.88;100.00;-17125.47;5025192;28;20017;-79
2023/10/19 09:21:26;;;;;;;31.88;24.35;;;;;;;-148.88;100.00;-17125.47;5020986;28;20465;-79
2023/10/19 09:23:56;;;;;;;40.25;29.13;;;;;;;-148.88;100.00;-17125.47;5016561;28;20022;-79
2023/10/19 09:26:23;;;;;;;30.92;24.95;;;;;;;-148.88;100.00;-17125.47;5016972;28;20037;-79
2023/10/19 09:28:50;;;;;;;30.05;23.27;;;;;;;-148.88;100.00;-17125.47;5016957;28;20025;-79
2023/10/19 09:31:17;;;;;;;29.27;22.15;;;;;;;-148.88;100.00;-17125.47;5017902;28;20038;-79
2023/10/19 09:33:43;;;;;;;29.05;22.33;;;;;;;-148.88;100.00;-17125.47;5017360;28;20026;-79
2023/10/19 09:36:16;;;;;;;26.23;21.50;;;;;;;-148.88;100.00;-17125.47;5021064;28;20022;-79
2023/10/19 09:38:51;;;;;;;25.48;20.17;;;;;;;-148.88;100.00;-17125.47;5023924;28;20053;-79
2023/10/19 09:41:21;;;;;;;26.92;20.20;;;;;;;-148.88;100.00;-17125.47;5023693;28;20034;-79
2023/10/19 09:43:49;;;;;;;28.48;21.27;;;;;;;-148.88;100.00;-17125.47;5021957;28;20040;-79
2023/10/19 09:46:26;;;;;;;24.10;18.73;;;;;;;-148.88;100.00;-17125.47;5023606;28;20032;-79
2023/10/19 09:48:52;;;;;;;24.20;20.23;;;;;;;-148.88;100.00;-17125.47;5022057;28;20033;-79
2023/10/19 09:51:19;;;;;;;23.55;19.60;;;;;;;-148.88;100.00;-17125.47;5021723;28;20022;-79
2023/10/19 09:53:49;;;;;;;26.98;20.75;;;;;;;-148.88;100.00;-17125.47;5022503;28;20319;-80
2023/10/19 09:56:25;;;;;;;22.58;18.40;;;;;;;-148.88;100.00;-17125.47;5020954;28;20061;-80
2023/10/19 09:58:55;;;;;;;22.13;18.67;;;;;;;-148.88;100.00;-17125.47;5015333;28;20022;-80
2023/10/19 10:01:21;;;;;;;23.17;17.98;;;;;;;-148.88;100.00;-17125.47;5016716;28;20022;-80
2023/10/19 10:03:53;;;;;;;22.48;17.45;;;;;;;-148.88;100.00;-17125.47;5017344;28;20112;-80
2023/10/19 10:06:50;;;;;;;22.73;17.98;;;;;;;-148.88;100.00;-17125.47;5016315;28;20079;-80
2023/10/19 10:09:21;;;;;;;22.05;18.23;;;;;;;-148.88;100.00;-17125.47;5017051;28;20095;-80
2023/10/19 10:11:49;;;;;;;21.00;17.48;;;;;;;-148.88;100.00;-17125.47;5018287;28;20033;-80
2023/10/19 10:14:28;;;;;;;21.48;17.98;;;;;;;-148.88;100.00;-17125.47;5022462;28;20021;-80
2023/10/19 10:17:05;;;;;;;24.95;19.02;;;;;;;-148.88;100.00;-17125.47;5020570;28;20025;-80
2023/10/19 10:19:31;;;;;;;23.27;17.67;;;;;;;-148.88;100.00;-17125.47;5021385;28;20032;-80
2023/10/19 10:22:20;;;;;;;24.33;18.80;;;;;;;-148.88;100.00;-17125.47;5021152;28;20029;-80
2023/10/19 10:24:46;;;;;;;21.90;18.00;;;;;;;-148.88;100.00;-17125.47;5022392;28;20077;-80
2023/10/19 10:27:14;;;;;;;21.63;17.88;;;;;;;-148.88;100.00;-17125.47;5021345;28;20112;-77
2023/10/19 10:29:55;;;;;;;24.08;18.90;;;;;;;-148.88;100.00;-17125.47;5014954;28;20033;-77
2023/10/19 10:32:52;;;;;;;21.20;18.15;;;;;;;-148.88;100.00;-17125.47;5014913;28;20030;-77
2023/10/19 10:35:36;;;;;;;19.67;16.85;;;;;;;-148.88;100.00;-17125.47;5006825;28;20493;-77
2023/10/19 10:38:05;;;;;;;20.73;17.23;;;;;;;-148.88;100.00;-17125.47;5014267;28;20076;-77
2023/10/19 10:40:31;;;;;;;21.35;16.77;;;;;;;-148.88;100.00;-17125.47;5014197;28;20061;-77
2023/10/19 10:43:07;;;;;;;28.52;21.77;;;;;;;-148.88;100.00;-17125.47;5012917;28;20037;-77
2023/10/19 10:45:32;;;;;;;23.70;18.73;;;;;;;-148.88;100.00;-17125.47;5012727;28;20079;-77
2023/10/19 10:48:00;;;;;;;23.27;17.90;;;;;;;-148.88;100.00;-17125.47;5013941;28;20108;-79
2023/10/19 10:50:28;;;;;;;20.35;17.02;;;;;;;-148.88;100.00;-17125.47;5014037;28;20035;-78
2023/10/19 10:52:59;;;;;;;20.42;17.15;;;;;;;-148.88;100.00;-17125.47;5013794;28;20022;-78
2023/10/19 10:55:27;;;;;;;20.00;16.85;;;;;;;-148.88;100.00;-17125.47;5016366;28;20519;-78
2023/10/19 10:57:54;;;;;;;19.58;16.50;;;;;;;-148.88;100.00;-17125.47;5015158;28;20032;-78
2023/10/19 11:00:20;;;;;;;21.17;16.52;;;;;;;-148.88;100.00;-17125.47;5014336;28;20168;-78